Fahri Eksioglu — TCUH — position and weather

sailwx.info

Track history (hours):
 
Tides and Currents Weather Stations Pressure Air Temp Water Temp Dewpoint Dewpoint Depression Visibility Wind Speed Wind Dir Waves Ship Positions

Fahri Eksioglu

Last reported at 2015-Jan-25 19:26 UTC. Time now 2015-Jan-29 04:26 UTC.
Position N 41°15' E 029°39'.

Length 89 m; draft 3.5 m.

Type: Cargo ship. MMSI: 271000450.

Date/timePositionNaut miles runAvg speedWind from/ knotsBaromVisibWave heightAir tempDewpointWater temp
2015-Jan-25 19:26N 41°15' E 029°39'8 9.6
2015-Jan-25 18:33N 41°16' E 029°28'10 9.8
2015-Jan-25 17:33N 41°16' E 029°15'  
2015-Jan-22 09:14N 40°28' E 026°51'14 7.5
2015-Jan-22 07:21N 40°19' E 026°36'  
2015-Jan-18 14:30N 41°16' E 029°06'1 0.2
2015-Jan-18 08:22N 41°17' E 029°06'6 7.7
2015-Jan-18 07:34N 41°19' E 029°14'8 8.4
2015-Jan-18 06:34N 41°19' E 029°25'9 8.6
2015-Jan-18 05:33N 41°19' E 029°36'382 8.2
2015-Jan-16 07:11N 44°13' E 037°20'710.0
2015-Jan-16 06:28N 44°19' E 037°26'910.4
2015-Jan-16 05:34N 44°26' E 037°35'10 9.8
2015-Jan-16 04:34N 44°33' E 037°44'8 8.4
2015-Jan-16 03:33N 44°40' E 037°50'4 3.7
2015-Jan-16 02:33N 44°44' E 037°48'0 0.0
2015-Jan-16 01:32N 44°44' E 037°48'0 0.0
2015-Jan-16 00:33N 44°44' E 037°48'0 0.0
2015-Jan-15 23:33N 44°44' E 037°48'0 0.0
2015-Jan-15 22:33N 44°44' E 037°48'0 0.0
2015-Jan-15 21:33N 44°44' E 037°48'0 0.0
2015-Jan-15 20:33N 44°44' E 037°48'0 0.0
2015-Jan-15 19:33N 44°44' E 037°48'  
Track history (hours):
 
Tides and Currents Weather Stations Pressure Air Temp Water Temp Dewpoint Dewpoint Depression Visibility Wind Speed Wind Dir Waves Ship Positions

Fahri Eksioglu

Last reported at 2015-Jan-25 19:26 UTC. Time now 2015-Jan-29 04:26 UTC.
Position N 41°15' E 029°39'.

Length 89 m; draft 3.5 m.

Type: Cargo ship. MMSI: 271000450.

Date/timePositionNaut miles runAvg speedWind from/ knotsBaromVisibWave heightAir tempDewpointWater temp
2015-Jan-25 19:26N 41°15' E 029°39'8 9.6
2015-Jan-25 18:33N 41°16' E 029°28'10 9.8
2015-Jan-25 17:33N 41°16' E 029°15'  
2015-Jan-22 09:14N 40°28' E 026°51'14 7.5
2015-Jan-22 07:21N 40°19' E 026°36'  
2015-Jan-18 14:30N 41°16' E 029°06'1 0.2
2015-Jan-18 08:22N 41°17' E 029°06'6 7.7
2015-Jan-18 07:34N 41°19' E 029°14'8 8.4
2015-Jan-18 06:34N 41°19' E 029°25'9 8.6
2015-Jan-18 05:33N 41°19' E 029°36'382 8.2
2015-Jan-16 07:11N 44°13' E 037°20'710.0
2015-Jan-16 06:28N 44°19' E 037°26'910.4
2015-Jan-16 05:34N 44°26' E 037°35'10 9.8
2015-Jan-16 04:34N 44°33' E 037°44'8 8.4
2015-Jan-16 03:33N 44°40' E 037°50'4 3.7
2015-Jan-16 02:33N 44°44' E 037°48'0 0.0
2015-Jan-16 01:32N 44°44' E 037°48'0 0.0
2015-Jan-16 00:33N 44°44' E 037°48'0 0.0
2015-Jan-15 23:33N 44°44' E 037°48'0 0.0
2015-Jan-15 22:33N 44°44' E 037°48'0 0.0
2015-Jan-15 21:33N 44°44' E 037°48'0 0.0
2015-Jan-15 20:33N 44°44' E 037°48'0 0.0
2015-Jan-15 19:33N 44°44' E 037°48'  

Dump ship's entire track history